createdAt,value
2019-02-17T00:00:55.773Z,97506.34
2019-02-17T00:03:27.402Z,97507.98
2019-02-17T00:05:58.355Z,97505.22
2019-02-17T00:08:29.326Z,97507.82
2019-02-17T00:11:00.290Z,97508.64
2019-02-17T00:13:31.768Z,97502.78
2019-02-17T00:16:02.730Z,97503.89
2019-02-17T00:18:33.785Z,97503.08
2019-02-17T00:21:04.780Z,97502.25
2019-02-17T00:23:36.036Z,97493.77
2019-02-17T00:26:07.069Z,97490.46
2019-02-17T00:28:38.057Z,97494.41
2019-02-17T00:31:09.262Z,97488.86
2019-02-17T00:33:40.235Z,97487.05
2019-02-17T00:36:11.270Z,97494.88
2019-02-17T00:38:42.835Z,97489.96
2019-02-17T00:41:13.801Z,97489.84
2019-02-17T00:43:44.779Z,97490.79
2019-02-17T00:46:16.007Z,97489.81
2019-02-17T00:48:47.589Z,97490.80
2019-02-17T00:51:19.131Z,97484.27
2019-02-17T00:53:50.376Z,97479.69
2019-02-17T00:56:21.341Z,97484.25
2019-02-17T00:58:53.750Z,97481.45
2019-02-17T01:01:24.711Z,97479.52
2019-02-17T01:03:55.742Z,97483.91
2019-02-17T01:06:27.027Z,97484.91
2019-02-17T01:08:57.990Z,97483.31
2019-02-17T01:11:28.957Z,97482.62
2019-02-17T01:14:00.247Z,97483.33
2019-02-17T01:16:31.198Z,97479.72
2019-02-17T01:19:02.962Z,97478.09
2019-02-17T01:21:33.916Z,97476.62
2019-02-17T01:24:05.158Z,97480.68
2019-02-17T01:26:36.115Z,97480.03
2019-02-17T01:29:07.089Z,97478.26
2019-02-17T01:31:38.352Z,97481.52
2019-02-17T01:34:11.705Z,97479.05
2019-02-17T01:36:42.697Z,97477.42
2019-02-17T01:39:14.778Z,97478.27
2019-02-17T01:41:45.808Z,97477.41
2019-02-17T01:44:16.873Z,97475.46
2019-02-17T01:46:47.966Z,97474.95
2019-02-17T01:49:18.951Z,97472.84
2019-02-17T01:51:49.980Z,97468.89
2019-02-17T01:54:20.963Z,97468.41
2019-02-17T01:56:52.183Z,97468.73
2019-02-17T01:59:30.369Z,97471.70
2019-02-17T02:01:56.687Z,97463.69
2019-02-17T02:04:27.722Z,97461.23
2019-02-17T02:06:59.082Z,97456.80
2019-02-17T02:09:30.068Z,97463.02
2019-02-17T02:12:01.037Z,97458.45
2019-02-17T02:14:32.629Z,97454.34
2019-02-17T02:17:04.067Z,97448.95
2019-02-17T02:19:35.087Z,97445.70
2019-02-17T02:22:06.048Z,97446.02
2019-02-17T02:24:38.291Z,97449.95
2019-02-17T02:27:09.938Z,97444.55
2019-02-17T02:29:41.617Z,97449.47
2019-02-17T02:32:13.101Z,97448.63
2019-02-17T02:34:44.426Z,97445.34
2019-02-17T02:37:15.905Z,97444.69
2019-02-17T02:39:47.218Z,97449.27
2019-02-17T02:42:18.688Z,97445.86
2019-02-17T02:44:50.163Z,97446.48
2019-02-17T02:47:21.130Z,97450.92
2019-02-17T02:49:52.615Z,97440.45
2019-02-17T02:52:24.077Z,97440.61
2019-02-17T02:54:55.046Z,97448.28
2019-02-17T02:57:26.015Z,97441.56
2019-02-17T02:59:57.294Z,97447.59
2019-02-17T03:02:28.767Z,97440.36
2019-02-17T03:04:59.743Z,97439.58
2019-02-17T03:07:31.030Z,97443.63
2019-02-17T03:10:02.627Z,97435.45
2019-02-17T03:12:33.633Z,97436.77
2019-02-17T03:15:05.931Z,97435.63
2019-02-17T03:17:37.142Z,97442.81
2019-02-17T03:20:09.152Z,97437.97
2019-02-17T03:22:40.098Z,97434.53
2019-02-17T03:25:11.504Z,97435.20
2019-02-17T03:27:42.689Z,97432.59
2019-02-17T03:30:14.104Z,97430.15
2019-02-17T03:32:45.335Z,97428.17
2019-02-17T03:35:16.297Z,97433.56
2019-02-17T03:37:47.566Z,97436.66
2019-02-17T03:40:19.123Z,97434.53
2019-02-17T03:42:50.491Z,97429.62
2019-02-17T03:45:22.279Z,97433.06
2019-02-17T03:47:53.883Z,97429.31
2019-02-17T03:50:25.386Z,97427.31
2019-02-17T03:52:56.339Z,97429.62
2019-02-17T03:55:27.673Z,97427.02
2019-02-17T03:57:58.635Z,97430.00
2019-02-17T04:00:29.653Z,97427.37
2019-02-17T04:03:00.608Z,97428.14
2019-02-17T04:05:31.936Z,97427.86
2019-02-17T04:08:02.893Z,97426.72
2019-02-17T04:10:33.932Z,97427.37
2019-02-17T04:13:05.572Z,97427.84
2019-02-17T04:15:37.442Z,97427.02
2019-02-17T04:18:08.786Z,97428.02
2019-02-17T04:20:40.032Z,97422.59
2019-02-17T04:23:12.205Z,97422.60
2019-02-17T04:25:44.004Z,97423.06
2019-02-17T04:28:18.670Z,97427.49
2019-02-17T04:30:49.756Z,97423.59
2019-02-17T04:33:21.141Z,97426.97
2019-02-17T04:35:52.656Z,97421.41
2019-02-17T04:38:24.806Z,97424.62
2019-02-17T04:40:56.107Z,97427.92
2019-02-17T04:43:27.086Z,97426.41
2019-02-17T04:45:58.434Z,97427.06
2019-02-17T04:48:30.616Z,97425.59
2019-02-17T04:51:02.135Z,97426.78
2019-02-17T04:53:33.910Z,97424.83
2019-02-17T04:56:05.028Z,97425.02
2019-02-17T04:58:36.303Z,97424.33
2019-02-17T05:01:07.467Z,97419.06
2019-02-17T05:03:38.899Z,97423.17
2019-02-17T05:06:10.262Z,97418.34
2019-02-17T05:08:41.739Z,97414.39
2019-02-17T05:11:12.953Z,97417.45
2019-02-17T05:13:44.406Z,97415.00
2019-02-17T05:16:15.535Z,97414.82
2019-02-17T05:18:46.543Z,97420.80
2019-02-17T05:21:18.033Z,97414.33
2019-02-17T05:23:49.279Z,97416.27
2019-02-17T05:26:20.624Z,97417.43
2019-02-17T05:28:51.710Z,97421.18
2019-02-17T05:31:22.684Z,97420.34
2019-02-17T05:33:54.164Z,97418.31
2019-02-17T05:36:25.471Z,97414.61
2019-02-17T05:38:56.842Z,97422.75
2019-02-17T05:41:28.544Z,97424.64
2019-02-17T05:44:00.080Z,97419.06
2019-02-17T05:46:31.295Z,97421.38
2019-02-17T05:49:02.503Z,97413.81
2019-02-17T05:51:33.710Z,97415.00
2019-02-17T05:54:04.981Z,97420.83
2019-02-17T05:56:36.773Z,97420.05
2019-02-17T05:59:09.076Z,97419.84
2019-02-17T06:01:40.836Z,97417.50
2019-02-17T06:04:12.054Z,97412.99
2019-02-17T06:06:43.325Z,97413.89
2019-02-17T06:09:14.656Z,97417.98
2019-02-17T06:11:45.914Z,97420.27
2019-02-17T06:14:17.160Z,97421.80
2019-02-17T06:16:48.628Z,97420.27
2019-02-17T06:19:19.968Z,97425.94
2019-02-17T06:21:51.213Z,97436.37
2019-02-17T06:24:23.305Z,97431.24
2019-02-17T06:26:55.258Z,97434.88
2019-02-17T06:29:26.654Z,97439.25
2019-02-17T06:31:58.246Z,97446.00
2019-02-17T06:34:29.289Z,97444.20
2019-02-17T06:37:00.516Z,97442.06
2019-02-17T06:39:31.478Z,97441.98
2019-02-17T06:42:02.928Z,97441.92
2019-02-17T06:44:35.110Z,97448.16
2019-02-17T06:47:37.414Z,97446.59
2019-02-17T06:50:10.264Z,97441.72
2019-02-17T06:52:41.572Z,97443.98
2019-02-17T06:55:26.180Z,97438.90
2019-02-17T06:57:57.325Z,97441.27
2019-02-17T07:00:34.379Z,97442.19
2019-02-17T07:03:06.174Z,97445.31
2019-02-17T07:06:14.828Z,97445.61
2019-02-17T07:08:46.150Z,97434.57
2019-02-17T07:11:17.390Z,97442.14
2019-02-17T07:13:49.191Z,97443.17
2019-02-17T07:16:22.145Z,97442.97
2019-02-17T07:18:54.680Z,97445.45
2019-02-17T07:21:25.958Z,97441.38
2019-02-17T07:23:57.590Z,97446.09
2019-02-17T07:26:29.335Z,97450.61
2019-02-17T07:29:00.695Z,97444.46
2019-02-17T07:31:34.942Z,97445.61
2019-02-17T07:34:05.447Z,97446.33
2019-02-17T07:36:36.682Z,97441.00
2019-02-17T07:39:08.122Z,97442.36
2019-02-17T07:41:39.913Z,97444.00
2019-02-17T07:44:12.114Z,97440.45
2019-02-17T07:46:43.426Z,97442.09
2019-02-17T07:49:14.479Z,97442.92
2019-02-17T07:51:45.786Z,97446.50
2019-02-17T07:54:17.416Z,97439.32
2019-02-17T07:56:48.555Z,97441.62
2019-02-17T07:59:19.510Z,97443.39
2019-02-17T08:01:50.720Z,97439.16
2019-02-17T08:04:22.138Z,97441.09
2019-02-17T08:06:53.201Z,97433.22
2019-02-17T08:09:24.837Z,97439.92
2019-02-17T08:11:56.378Z,97432.36
2019-02-17T08:14:27.599Z,97437.55
2019-02-17T08:16:59.061Z,97429.95
2019-02-17T08:19:30.260Z,97427.48
2019-02-17T08:22:01.236Z,97432.01
2019-02-17T08:24:32.425Z,97429.49
2019-02-17T08:27:04.668Z,97427.09
2019-02-17T08:29:36.241Z,97429.30
2019-02-17T08:32:07.509Z,97427.81
2019-02-17T08:34:38.458Z,97423.53
2019-02-17T08:37:09.480Z,97411.58
2019-02-17T08:39:41.025Z,97413.00
2019-02-17T08:42:12.669Z,97417.94
2019-02-17T08:44:43.979Z,97413.36
2019-02-17T08:47:16.280Z,97409.31
2019-02-17T08:49:47.339Z,97414.12
2019-02-17T08:52:18.559Z,97417.75
2019-02-17T08:54:49.634Z,97416.97
2019-02-17T08:57:20.634Z,97417.52
2019-02-17T08:59:51.898Z,97419.19
2019-02-17T09:02:23.244Z,97415.83
2019-02-17T09:04:54.593Z,97419.81
2019-02-17T09:07:25.855Z,97428.03
2019-02-17T09:09:57.080Z,97424.98
2019-02-17T09:12:28.150Z,97422.11
2019-02-17T09:14:59.369Z,97418.73
2019-02-17T09:17:30.370Z,97428.83
2019-02-17T09:20:01.966Z,97419.42
2019-02-17T09:22:34.104Z,97417.98
2019-02-17T09:25:05.950Z,97417.20
2019-02-17T09:27:37.860Z,97423.05
2019-02-17T09:30:15.163Z,97411.58
2019-02-17T09:32:46.629Z,97416.89
2019-02-17T09:35:18.452Z,97416.63
2019-02-17T09:37:49.806Z,97417.72
2019-02-17T09:40:21.476Z,97421.30
2019-02-17T09:42:53.547Z,97417.38
2019-02-17T09:45:25.456Z,97413.67
2019-02-17T09:47:57.249Z,97418.78
2019-02-17T09:50:28.491Z,97415.63
2019-02-17T09:53:00.426Z,97408.89
2019-02-17T09:55:31.397Z,97422.23
2019-02-17T09:58:02.668Z,97420.99
2019-02-17T10:00:33.987Z,97419.30
2019-02-17T10:03:05.048Z,97418.09
2019-02-17T10:05:36.305Z,97411.94
2019-02-17T10:08:07.564Z,97413.35
2019-02-17T10:10:38.530Z,97418.04
2019-02-17T10:13:10.011Z,97417.27
2019-02-17T10:15:41.055Z,97413.78
2019-02-17T10:18:12.441Z,97416.52
2019-02-17T10:20:44.374Z,97415.27
2019-02-17T10:23:15.655Z,97418.22
2019-02-17T10:25:46.667Z,97413.62
2019-02-17T10:28:17.745Z,97417.05
2019-02-17T10:30:49.341Z,97410.61
2019-02-17T10:33:20.554Z,97414.73
2019-02-17T10:35:51.858Z,97418.05
2019-02-17T10:38:23.325Z,97417.72
2019-02-17T10:40:55.174Z,97413.97
2019-02-17T10:43:26.745Z,97411.45
2019-02-17T10:45:58.033Z,97405.41
2019-02-17T10:48:29.494Z,97411.77
2019-02-17T10:51:00.962Z,97404.85
2019-02-17T10:53:32.133Z,97404.59
2019-02-17T10:56:03.093Z,97407.06
2019-02-17T10:58:35.692Z,97395.34
2019-02-17T11:01:07.074Z,97394.70
2019-02-17T11:03:38.068Z,97391.80
2019-02-17T11:06:09.356Z,97395.61
2019-02-17T11:08:40.924Z,97382.95
2019-02-17T11:11:12.795Z,97384.00
2019-02-17T11:13:44.123Z,97381.78
2019-02-17T11:16:15.181Z,97380.98
2019-02-17T11:18:46.521Z,97381.30
2019-02-17T11:21:17.492Z,97374.56
2019-02-17T11:23:48.749Z,97373.02
2019-02-17T11:26:20.067Z,97370.06
2019-02-17T11:28:51.639Z,97369.16
2019-02-17T11:31:23.838Z,97363.04
2019-02-17T11:33:55.936Z,97356.02
2019-02-17T11:36:27.219Z,97355.81
2019-02-17T11:38:59.796Z,97349.58
2019-02-17T11:41:31.834Z,97348.47
2019-02-17T11:44:03.381Z,97342.00
2019-02-17T11:46:34.701Z,97332.36
2019-02-17T11:49:05.724Z,97335.22
2019-02-17T11:51:37.695Z,97329.62
2019-02-17T11:54:08.814Z,97322.43
2019-02-17T11:56:40.427Z,97320.13
2019-02-17T11:59:12.739Z,97315.20
2019-02-17T12:01:43.784Z,97317.80
2019-02-17T12:04:15.609Z,97314.70
2019-02-17T12:06:47.066Z,97308.74
2019-02-17T12:09:18.338Z,97306.49
2019-02-17T12:11:49.543Z,97299.58
2019-02-17T12:14:21.009Z,97298.24
2019-02-17T12:16:52.482Z,97304.53
2019-02-17T12:19:23.753Z,97295.48
2019-02-17T12:22:00.788Z,97292.40
2019-02-17T12:24:41.576Z,97286.84
2019-02-17T12:27:30.499Z,97284.03
2019-02-17T12:30:06.202Z,97287.14
2019-02-17T12:32:39.900Z,97280.92
2019-02-17T12:35:11.027Z,97275.77
2019-02-17T12:37:41.984Z,97276.53
2019-02-17T12:40:13.800Z,97267.99
2019-02-17T12:42:45.112Z,97265.41
2019-02-17T12:45:18.356Z,97266.85
2019-02-17T12:47:57.455Z,97257.37
2019-02-17T12:50:23.659Z,97263.64
2019-02-17T12:52:56.850Z,97260.36
2019-02-17T12:55:28.768Z,97258.52
2019-02-17T12:57:59.976Z,97246.84
2019-02-17T13:00:31.363Z,97244.56
2019-02-17T13:03:02.577Z,97242.63
2019-02-17T13:05:33.557Z,97243.05
2019-02-17T13:08:04.802Z,97240.42
2019-02-17T13:10:36.084Z,97239.22
2019-02-17T13:13:07.627Z,97229.61
2019-02-17T13:15:38.963Z,97220.36
2019-02-17T13:18:09.978Z,97221.55
2019-02-17T13:20:41.279Z,97221.02
2019-02-17T13:23:13.098Z,97219.64
2019-02-17T13:25:44.445Z,97216.05
2019-02-17T13:28:16.074Z,97212.16
2019-02-17T13:30:48.874Z,97211.09
2019-02-17T13:33:20.230Z,97211.34
2019-02-17T13:35:52.506Z,97210.23
2019-02-17T13:38:23.811Z,97205.99
2019-02-17T13:40:55.802Z,97203.53
2019-02-17T13:43:27.361Z,97209.60
2019-02-17T13:45:58.894Z,97203.39
2019-02-17T13:48:30.925Z,97199.73
2019-02-17T13:51:02.436Z,97202.40
2019-02-17T13:53:33.938Z,97205.63
2019-02-17T13:56:05.025Z,97203.48
2019-02-17T13:58:36.316Z,97204.13
2019-02-17T14:01:07.550Z,97202.70
2019-02-17T14:03:48.228Z,97201.05
2019-02-17T14:06:11.530Z,97198.22
2019-02-17T14:08:42.792Z,97195.84
2019-02-17T14:11:14.314Z,97187.86
2019-02-17T14:13:46.009Z,97186.66
2019-02-17T14:16:17.662Z,97191.52
2019-02-17T14:18:49.177Z,97185.52
2019-02-17T14:21:20.580Z,97188.55
2019-02-17T14:23:52.299Z,97179.33
2019-02-17T14:26:23.578Z,97178.73
2019-02-17T14:28:55.911Z,97183.77
2019-02-17T14:31:27.783Z,97173.22
2019-02-17T14:34:00.359Z,97171.76
2019-02-17T14:36:31.498Z,97171.66
2019-02-17T14:39:02.518Z,97170.78
2019-02-17T14:41:35.471Z,97173.22
2019-02-17T14:44:06.591Z,97168.82
2019-02-17T14:46:38.110Z,97168.59
2019-02-17T14:49:09.073Z,97163.30
2019-02-17T14:51:40.624Z,97162.48
2019-02-17T14:54:13.211Z,97163.69
2019-02-17T14:56:44.585Z,97165.25
2019-02-17T14:59:15.566Z,97160.51
2019-02-17T15:01:46.951Z,97164.92
2019-02-17T15:04:17.898Z,97159.77
2019-02-17T15:06:49.198Z,97156.06
2019-02-17T15:09:20.743Z,97153.30
2019-02-17T15:11:52.633Z,97161.78
2019-02-17T15:14:24.151Z,97156.77
2019-02-17T15:16:56.288Z,97151.37
2019-02-17T15:19:27.331Z,97151.92
2019-02-17T15:21:58.469Z,97147.03
2019-02-17T15:24:30.396Z,97138.16
2019-02-17T15:27:01.572Z,97141.58
2019-02-17T15:29:32.913Z,97133.22
2019-02-17T15:32:04.428Z,97130.90
2019-02-17T15:34:35.537Z,97127.96
2019-02-17T15:37:07.300Z,97130.84
2019-02-17T15:39:38.952Z,97132.23
2019-02-17T15:42:11.310Z,97127.98
2019-02-17T15:44:42.432Z,97127.70
2019-02-17T15:47:13.679Z,97123.38
2019-02-17T15:49:44.643Z,97130.13
2019-02-17T15:52:15.946Z,97128.86
2019-02-17T15:54:47.476Z,97134.17
2019-02-17T15:57:18.476Z,97125.59
2019-02-17T15:59:49.924Z,97123.92
2019-02-17T16:02:21.181Z,97123.64
2019-02-17T16:04:52.563Z,97123.12
2019-02-17T16:07:23.579Z,97122.00
2019-02-17T16:09:54.785Z,97116.30
2019-02-17T16:12:26.613Z,97120.39
2019-02-17T16:14:57.857Z,97122.23
2019-02-17T16:17:29.112Z,97115.70
2019-02-17T16:20:00.777Z,97123.83
2019-02-17T16:22:32.066Z,97117.59
2019-02-17T16:25:03.032Z,97115.49
2019-02-17T16:27:34.351Z,97113.60
2019-02-17T16:30:06.338Z,97114.50
2019-02-17T16:32:37.386Z,97119.60
2019-02-17T16:35:08.586Z,97115.69
2019-02-17T16:37:39.614Z,97118.50
2019-02-17T16:40:12.566Z,97116.23
2019-02-17T16:42:43.592Z,97115.95
2019-02-17T16:45:15.723Z,97114.34
2019-02-17T16:47:47.070Z,97119.30
2019-02-17T16:50:19.622Z,97123.05
2019-02-17T16:52:51.411Z,97119.52
2019-02-17T16:55:23.495Z,97121.44
2019-02-17T16:57:54.562Z,97123.35
2019-02-17T17:00:27.072Z,97128.36
2019-02-17T17:02:58.215Z,97126.11
2019-02-17T17:05:29.176Z,97136.33
2019-02-17T17:08:00.434Z,97137.66
2019-02-17T17:10:31.422Z,97140.89
2019-02-17T17:13:02.540Z,97138.53
2019-02-17T17:15:34.017Z,97138.25
2019-02-17T17:18:05.398Z,97142.05
2019-02-17T17:20:36.933Z,97144.08
2019-02-17T17:23:09.718Z,97143.58
2019-02-17T17:25:40.784Z,97145.83
2019-02-17T17:28:12.316Z,97145.08
2019-02-17T17:30:43.661Z,97143.95
2019-02-17T17:33:15.740Z,97146.17
2019-02-17T17:35:46.706Z,97149.87
2019-02-17T17:38:18.051Z,97147.86
2019-02-17T17:40:49.072Z,97145.42
2019-02-17T17:43:20.575Z,97155.34
2019-02-17T17:45:52.061Z,97156.50
2019-02-17T17:48:24.287Z,97155.95
2019-02-17T17:50:57.524Z,97160.23
2019-02-17T17:53:28.600Z,97160.62
2019-02-17T17:56:00.178Z,97159.30
2019-02-17T17:58:31.466Z,97158.61
2019-02-17T18:01:03.020Z,97156.88
2019-02-17T18:03:34.029Z,97158.55
2019-02-17T18:06:05.457Z,97158.86
2019-02-17T18:08:36.792Z,97157.95
2019-02-17T18:11:08.108Z,97155.95
2019-02-17T18:13:40.339Z,97163.67
2019-02-17T18:16:11.774Z,97156.67
2019-02-17T18:18:43.670Z,97168.05
2019-02-17T18:21:15.270Z,97166.00
2019-02-17T18:23:47.134Z,97165.72
2019-02-17T18:26:18.276Z,97165.48
2019-02-17T18:28:49.286Z,97162.75
2019-02-17T18:31:20.342Z,97167.01
2019-02-17T18:33:51.421Z,97159.76
2019-02-17T18:36:22.539Z,97156.08
2019-02-17T18:38:53.889Z,97155.98
2019-02-17T18:41:25.564Z,97160.42
2019-02-17T18:43:56.699Z,97155.97
2019-02-17T18:46:27.626Z,97156.16
2019-02-17T18:48:59.764Z,97158.08
2019-02-17T18:51:31.028Z,97155.23
2019-02-17T18:54:03.046Z,97145.90
2019-02-17T18:56:34.658Z,97146.69
2019-02-17T18:59:06.395Z,97148.52
2019-02-17T19:01:38.278Z,97142.92
2019-02-17T19:04:09.289Z,97142.52
2019-02-17T19:06:40.313Z,97141.67
2019-02-17T19:09:11.335Z,97147.59
2019-02-17T19:11:42.741Z,97143.26
2019-02-17T19:14:13.894Z,97146.67
2019-02-17T19:16:45.210Z,97146.53
2019-02-17T19:19:16.258Z,97146.04
2019-02-17T19:21:47.579Z,97142.72
2019-02-17T19:24:19.475Z,97139.62
2019-02-17T19:26:51.021Z,97134.77
2019-02-17T19:29:22.434Z,97138.86
2019-02-17T19:31:54.723Z,97139.05
2019-02-17T19:34:26.536Z,97137.43
2019-02-17T19:36:59.128Z,97142.17
2019-02-17T19:39:30.133Z,97141.65
2019-02-17T19:42:01.868Z,97138.98
2019-02-17T19:44:33.374Z,97147.62
2019-02-17T19:47:04.881Z,97143.17
2019-02-17T19:49:36.818Z,97148.20
2019-02-17T19:52:08.378Z,97148.52
2019-02-17T19:54:39.392Z,97147.23
2019-02-17T19:57:11.141Z,97149.83
2019-02-17T19:59:42.176Z,97151.97
2019-02-17T20:02:14.094Z,97161.25
2019-02-17T20:04:48.581Z,97159.77
2019-02-17T20:07:19.897Z,97162.25
2019-02-17T20:09:50.909Z,97164.47
2019-02-17T20:12:21.964Z,97158.86
2019-02-17T20:14:53.038Z,97164.88
2019-02-17T20:17:24.544Z,97167.11
2019-02-17T20:19:57.303Z,97175.53
2019-02-17T20:22:28.879Z,97178.34
2019-02-17T20:25:00.325Z,97182.63
2019-02-17T20:27:31.887Z,97185.23
2019-02-17T20:30:03.682Z,97181.84
2019-02-17T20:32:34.988Z,97183.12
2019-02-17T20:35:06.588Z,97186.92
2019-02-17T20:37:38.024Z,97181.22
2019-02-17T20:40:09.857Z,97183.31
2019-02-17T20:42:41.480Z,97183.07
2019-02-17T20:45:13.904Z,97183.70
2019-02-17T20:47:45.266Z,97176.81
2019-02-17T20:50:16.474Z,97181.87
2019-02-17T20:52:48.413Z,97177.69
2019-02-17T20:55:19.804Z,97181.70
2019-02-17T20:57:51.547Z,97183.62
2019-02-17T21:00:25.960Z,97179.80
2019-02-17T21:02:57.034Z,97185.98
2019-02-17T21:05:28.707Z,97183.53
2019-02-17T21:07:59.831Z,97178.64
2019-02-17T21:10:31.067Z,97172.22
2019-02-17T21:13:02.857Z,97182.70
2019-02-17T21:15:34.689Z,97180.08
2019-02-17T21:18:05.968Z,97179.90
2019-02-17T21:20:37.475Z,97185.67
2019-02-17T21:23:09.090Z,97180.19
2019-02-17T21:25:40.339Z,97178.39
2019-02-17T21:28:11.566Z,97174.77
2019-02-17T21:30:42.897Z,97178.09
2019-02-17T21:33:14.346Z,97177.05
2019-02-17T21:35:45.724Z,97181.34
2019-02-17T21:38:16.927Z,97176.34
2019-02-17T21:40:48.087Z,97176.72
2019-02-17T21:43:19.113Z,97179.94
2019-02-17T21:45:50.089Z,97179.83
2019-02-17T21:48:21.556Z,97178.03
2019-02-17T21:50:53.070Z,97171.84
2019-02-17T21:53:24.595Z,97176.50
2019-02-17T21:55:57.174Z,97179.23
2019-02-17T21:58:28.217Z,97179.06
2019-02-17T22:00:59.932Z,97176.61
2019-02-17T22:03:31.230Z,97172.61
2019-02-17T22:06:02.473Z,97170.66
2019-02-17T22:08:35.045Z,97162.22
2019-02-17T22:11:14.994Z,97166.00
2019-02-17T22:13:46.849Z,97165.21
2019-02-17T22:16:20.231Z,97163.77
2019-02-17T22:18:51.076Z,97163.72
2019-02-17T22:21:22.544Z,97155.78
2019-02-17T22:23:53.753Z,97160.20
2019-02-17T22:26:24.914Z,97162.28
2019-02-17T22:28:57.277Z,97156.39
2019-02-17T22:31:29.056Z,97154.83
2019-02-17T22:34:00.983Z,97152.45
2019-02-17T22:36:32.429Z,97149.77
2019-02-17T22:39:06.333Z,97155.97
2019-02-17T22:41:37.335Z,97154.58
2019-02-17T22:44:08.952Z,97148.13
2019-02-17T22:46:40.160Z,97156.81
2019-02-17T22:49:11.375Z,97157.70
2019-02-17T22:51:42.437Z,97152.76
2019-02-17T22:54:14.183Z,97152.20
2019-02-17T22:56:45.255Z,97145.00
2019-02-17T22:59:16.379Z,97149.28
2019-02-17T23:01:47.637Z,97151.84
2019-02-17T23:04:18.814Z,97146.65
2019-02-17T23:06:54.151Z,97146.77
2019-02-17T23:09:23.586Z,97152.27
2019-02-17T23:11:54.924Z,97146.01
2019-02-17T23:14:27.121Z,97151.13
2019-02-17T23:16:58.277Z,97143.44
2019-02-17T23:19:29.249Z,97141.41
2019-02-17T23:22:00.536Z,97143.06
2019-02-17T23:24:32.457Z,97143.73
2019-02-17T23:27:04.187Z,97146.64
2019-02-17T23:29:35.183Z,97147.72
2019-02-17T23:32:06.447Z,97150.30
2019-02-17T23:34:37.666Z,97145.59
2019-02-17T23:37:09.178Z,97146.59
2019-02-17T23:39:40.783Z,97146.72
2019-02-17T23:42:12.574Z,97147.55
2019-02-17T23:44:44.184Z,97144.66
2019-02-17T23:47:15.585Z,97149.45
2019-02-17T23:49:46.730Z,97150.19
2019-02-17T23:52:17.754Z,97154.48
2019-02-17T23:54:48.793Z,97159.78
2019-02-17T23:57:20.316Z,97156.89
2019-02-17T23:59:51.272Z,97153.53
